createdAt,value
2023-02-27T00:01:27.735Z,12.20
2023-02-27T00:04:06.531Z,12.57
2023-02-27T00:06:45.558Z,12.20
2023-02-27T00:09:31.057Z,12.25
2023-02-27T00:12:03.933Z,11.23
2023-02-27T00:14:54.106Z,10.82
2023-02-27T00:17:36.680Z,11.57
2023-02-27T00:20:18.312Z,13.32
2023-02-27T00:22:59.446Z,18.52
2023-02-27T00:25:36.340Z,12.05
2023-02-27T00:28:12.923Z,13.02
2023-02-27T00:31:00.737Z,10.93
2023-02-27T00:33:43.708Z,11.82
2023-02-27T00:36:23.548Z,12.27
2023-02-27T00:39:02.764Z,12.40
2023-02-27T00:41:37.448Z,13.18
2023-02-27T00:44:19.258Z,13.00
2023-02-27T00:47:07.321Z,10.10
2023-02-27T00:49:56.316Z,12.52
2023-02-27T00:52:33.870Z,13.85
2023-02-27T00:55:13.313Z,13.90
2023-02-27T00:57:54.660Z,13.35
2023-02-27T01:00:33.471Z,14.38
2023-02-27T01:06:05.435Z,13.38
2023-02-27T01:08:42.904Z,13.13
2023-02-27T01:11:39.361Z,13.77
2023-02-27T01:14:12.470Z,14.38
2023-02-27T01:16:47.143Z,14.60
2023-02-27T01:19:24.108Z,12.43
2023-02-27T01:22:02.355Z,14.52
2023-02-27T01:24:37.808Z,13.60
2023-02-27T01:27:15.215Z,14.73
2023-02-27T01:29:51.188Z,15.70
2023-02-27T01:32:29.296Z,14.57
2023-02-27T01:35:18.695Z,14.55
2023-02-27T01:37:53.916Z,15.13
2023-02-27T01:40:29.392Z,10.45
2023-02-27T01:43:04.000Z,14.57
2023-02-27T01:45:39.350Z,14.27
2023-02-27T01:48:21.367Z,14.80
2023-02-27T01:51:12.010Z,13.93
2023-02-27T01:53:50.469Z,15.95
2023-02-27T01:56:25.781Z,15.25
2023-02-27T01:59:08.637Z,14.13
2023-02-27T02:01:55.126Z,16.38
2023-02-27T02:04:35.454Z,15.13
2023-02-27T02:07:17.248Z,16.33
2023-02-27T02:09:55.601Z,15.05
2023-02-27T02:12:43.481Z,11.43
2023-02-27T02:15:25.623Z,15.55
2023-02-27T02:18:15.000Z,15.57
2023-02-27T02:21:35.969Z,15.05
2023-02-27T02:24:51.337Z,15.20
2023-02-27T02:27:48.994Z,15.00
2023-02-27T02:31:24.616Z,16.02
2023-02-27T02:34:51.925Z,16.33
2023-02-27T02:38:02.849Z,14.85
2023-02-27T02:40:45.045Z,16.08
2023-02-27T02:43:26.072Z,16.02
2023-02-27T02:46:13.534Z,15.77
2023-02-27T02:48:59.716Z,16.80
2023-02-27T02:51:48.650Z,16.50
2023-02-27T02:54:46.102Z,16.20
2023-02-27T02:57:33.896Z,15.52
2023-02-27T03:00:33.668Z,16.35
2023-02-27T03:03:21.835Z,15.93
2023-02-27T03:06:06.439Z,16.95
2023-02-27T03:08:50.314Z,16.25
2023-02-27T03:11:41.153Z,17.10
2023-02-27T03:14:33.365Z,16.85
2023-02-27T03:17:19.441Z,17.27
2023-02-27T03:20:12.428Z,17.70
2023-02-27T03:22:54.709Z,17.90
2023-02-27T03:25:32.966Z,17.02
2023-02-27T03:28:27.327Z,16.42
2023-02-27T03:31:30.323Z,17.40
2023-02-27T03:34:20.939Z,17.55
2023-02-27T03:37:10.934Z,18.10
2023-02-27T03:40:06.678Z,16.92
2023-02-27T03:42:55.561Z,17.20
2023-02-27T03:46:02.305Z,17.35
2023-02-27T03:49:03.380Z,16.88
2023-02-27T03:51:42.575Z,17.70
2023-02-27T03:54:19.420Z,21.08
2023-02-27T03:56:58.686Z,18.98
2023-02-27T03:59:52.554Z,17.42
2023-02-27T04:02:27.872Z,24.05
2023-02-27T04:05:11.631Z,17.48
2023-02-27T04:08:39.818Z,20.05
2023-02-27T04:11:44.904Z,17.23
2023-02-27T04:14:36.275Z,17.33
2023-02-27T04:17:29.361Z,18.58
2023-02-27T04:20:46.672Z,18.08
2023-02-27T04:23:27.589Z,18.08
2023-02-27T04:28:48.903Z,16.48
2023-02-27T04:31:41.282Z,17.13
2023-02-27T04:34:31.350Z,18.38
2023-02-27T04:37:18.252Z,16.65
2023-02-27T04:40:09.537Z,17.63
2023-02-27T04:42:57.236Z,18.08
2023-02-27T04:45:46.053Z,17.42
2023-02-27T04:48:32.170Z,17.17
2023-02-27T04:51:26.373Z,17.77
2023-02-27T04:54:09.109Z,17.35
2023-02-27T04:57:09.338Z,17.65
2023-02-27T04:59:52.250Z,17.25
2023-02-27T05:02:39.718Z,17.90
2023-02-27T05:05:17.861Z,17.00
2023-02-27T05:08:10.751Z,17.70
2023-02-27T05:10:57.659Z,18.58
2023-02-27T05:13:44.394Z,24.70
2023-02-27T05:16:28.897Z,30.83
2023-02-27T05:19:11.482Z,22.25
2023-02-27T05:22:04.754Z,25.30
2023-02-27T05:24:58.444Z,18.80
2023-02-27T05:27:44.203Z,17.70
2023-02-27T05:30:54.162Z,16.27
2023-02-27T05:33:40.153Z,16.90
2023-02-27T05:36:20.523Z,17.98
2023-02-27T05:39:00.684Z,17.23
2023-02-27T05:41:43.642Z,18.20
2023-02-27T05:44:24.035Z,19.38
2023-02-27T05:47:22.423Z,24.85
2023-02-27T05:50:28.213Z,19.98
2023-02-27T05:53:13.375Z,21.63
2023-02-27T05:55:57.195Z,23.17
2023-02-27T05:58:36.691Z,24.65
2023-02-27T06:01:12.639Z,24.52
2023-02-27T06:03:58.133Z,24.27
2023-02-27T06:06:40.878Z,21.38
2023-02-27T06:09:23.704Z,24.92
2023-02-27T06:12:00.613Z,21.88
2023-02-27T06:14:35.926Z,23.30
2023-02-27T06:17:06.652Z,23.13
2023-02-27T06:19:46.154Z,24.50
2023-02-27T06:22:25.352Z,22.83
2023-02-27T06:25:03.342Z,20.83
2023-02-27T06:27:39.134Z,23.55
2023-02-27T06:30:25.816Z,22.73
2023-02-27T06:33:04.147Z,22.75
2023-02-27T06:35:44.810Z,20.40
2023-02-27T06:38:20.781Z,21.83
2023-02-27T06:40:56.288Z,21.30
2023-02-27T06:43:36.676Z,19.92
2023-02-27T06:46:13.840Z,25.35
2023-02-27T06:48:48.787Z,26.30
2023-02-27T06:51:35.907Z,32.58
2023-02-27T06:54:20.932Z,28.52
2023-02-27T06:57:01.252Z,29.98
2023-02-27T06:59:43.531Z,85.03
2023-02-27T07:02:20.345Z,28.70
2023-02-27T07:04:55.955Z,20.90
2023-02-27T07:07:43.919Z,24.77
2023-02-27T07:10:27.590Z,24.30
2023-02-27T07:13:03.623Z,25.35
2023-02-27T07:15:50.981Z,25.90
2023-02-27T07:18:33.128Z,26.92
2023-02-27T07:21:14.570Z,26.63
2023-02-27T07:23:51.510Z,23.88
2023-02-27T07:26:31.123Z,22.25
2023-02-27T07:29:09.963Z,18.90
2023-02-27T07:31:44.577Z,20.10
2023-02-27T07:34:32.221Z,20.00
2023-02-27T07:37:11.936Z,22.25
2023-02-27T07:40:08.237Z,17.70
2023-02-27T07:42:40.640Z,19.23
2023-02-27T07:45:19.216Z,17.92
2023-02-27T07:48:04.061Z,19.13
2023-02-27T07:50:48.465Z,23.00
2023-02-27T07:53:19.425Z,18.23
2023-02-27T07:58:47.261Z,21.45
2023-02-27T08:01:26.636Z,28.17
2023-02-27T08:04:03.321Z,18.90
2023-02-27T08:06:41.430Z,19.95
2023-02-27T08:09:21.147Z,19.35
2023-02-27T08:12:00.815Z,21.45
2023-02-27T08:14:42.284Z,18.52
2023-02-27T08:17:15.271Z,19.25
2023-02-27T08:19:46.888Z,23.58
2023-02-27T08:22:25.020Z,28.00
2023-02-27T08:25:03.575Z,31.25
2023-02-27T08:27:53.006Z,21.80
2023-02-27T08:30:23.503Z,23.85
2023-02-27T08:33:04.855Z,18.70
2023-02-27T08:35:39.833Z,21.95
2023-02-27T08:38:18.112Z,19.17
2023-02-27T08:40:59.024Z,20.25
2023-02-27T08:43:42.654Z,18.65
2023-02-27T08:46:14.689Z,17.33
2023-02-27T08:48:57.885Z,17.83
2023-02-27T08:51:37.436Z,18.20
2023-02-27T08:54:09.304Z,19.40
2023-02-27T08:56:40.028Z,19.92
2023-02-27T08:59:25.173Z,25.27
2023-02-27T09:02:08.919Z,21.92
2023-02-27T09:04:44.963Z,19.30
2023-02-27T09:07:26.538Z,18.83
2023-02-27T09:10:00.693Z,17.35
2023-02-27T09:12:45.333Z,27.85
2023-02-27T09:15:30.420Z,20.92
2023-02-27T09:18:18.224Z,14.50
2023-02-27T09:21:03.697Z,17.30
2023-02-27T09:23:36.076Z,15.38
2023-02-27T09:26:32.115Z,14.30
2023-02-27T09:29:23.669Z,16.05
2023-02-27T09:32:01.633Z,14.38
2023-02-27T09:34:38.381Z,19.15
2023-02-27T09:37:15.152Z,19.90
2023-02-27T09:39:57.008Z,15.18
2023-02-27T09:45:20.062Z,13.15
2023-02-27T09:48:07.332Z,18.70
2023-02-27T09:50:46.987Z,12.73
2023-02-27T09:53:36.779Z,15.18
2023-02-27T09:56:30.811Z,16.13
2023-02-27T09:59:40.093Z,16.55
2023-02-27T10:02:40.777Z,14.55
2023-02-27T10:05:50.966Z,15.27
2023-02-27T10:08:44.072Z,15.23
2023-02-27T10:11:30.220Z,15.27
2023-02-27T10:14:14.572Z,13.73
2023-02-27T10:17:00.108Z,12.48
2023-02-27T10:19:40.855Z,21.33
2023-02-27T10:22:27.383Z,13.35
2023-02-27T10:25:31.571Z,17.42
2023-02-27T10:28:18.449Z,19.15
2023-02-27T10:31:01.782Z,15.05
2023-02-27T10:33:45.001Z,12.40
2023-02-27T10:36:33.070Z,14.68
2023-02-27T10:39:28.186Z,14.32
2023-02-27T10:42:11.751Z,13.35
2023-02-27T10:44:50.595Z,12.98
2023-02-27T10:47:37.384Z,13.27
2023-02-27T10:50:24.397Z,16.13
2023-02-27T10:53:03.539Z,17.45
2023-02-27T10:55:45.164Z,15.52
2023-02-27T10:58:25.871Z,12.30
2023-02-27T11:01:02.223Z,14.27
2023-02-27T11:03:41.498Z,16.90
2023-02-27T11:06:33.364Z,13.43
2023-02-27T11:09:27.876Z,13.77
2023-02-27T11:12:27.737Z,17.02
2023-02-27T11:15:28.834Z,14.43
2023-02-27T11:18:33.857Z,16.63
2023-02-27T11:21:24.888Z,17.40
2023-02-27T11:24:11.536Z,16.00
2023-02-27T11:27:00.784Z,17.20
2023-02-27T11:30:11.124Z,15.85
2023-02-27T11:32:59.139Z,14.48
2023-02-27T11:35:40.717Z,17.60
2023-02-27T11:38:25.852Z,12.77
2023-02-27T11:41:03.325Z,13.75
2023-02-27T11:43:52.256Z,16.05
2023-02-27T11:46:47.090Z,18.75
2023-02-27T11:49:40.213Z,18.20
2023-02-27T11:55:10.115Z,14.45
2023-02-27T11:57:51.886Z,14.38
2023-02-27T12:00:38.725Z,17.38
2023-02-27T12:03:31.438Z,20.90
2023-02-27T12:06:15.401Z,16.80
2023-02-27T12:09:01.444Z,18.48
2023-02-27T12:11:42.826Z,19.70
2023-02-27T12:17:23.602Z,15.35
2023-02-27T12:20:29.899Z,17.40
2023-02-27T12:23:19.127Z,15.10
2023-02-27T12:26:04.455Z,24.33
2023-02-27T12:28:54.145Z,15.82
2023-02-27T12:31:45.375Z,14.40
2023-02-27T12:34:45.594Z,16.50
2023-02-27T12:37:31.600Z,22.05
2023-02-27T12:40:12.297Z,16.42
2023-02-27T12:46:40.977Z,15.95
2023-02-27T12:49:48.783Z,14.63
2023-02-27T12:52:52.504Z,13.85
2023-02-27T12:55:32.956Z,17.73
2023-02-27T12:59:00.948Z,13.90
2023-02-27T13:01:45.147Z,16.42
2023-02-27T13:04:27.724Z,13.82
2023-02-27T13:07:07.581Z,16.42
2023-02-27T13:10:03.082Z,13.43
2023-02-27T13:12:53.990Z,17.70
2023-02-27T13:15:37.544Z,13.80
2023-02-27T13:18:27.262Z,14.45
2023-02-27T13:21:11.402Z,11.38
2023-02-27T13:23:55.965Z,11.73
2023-02-27T13:26:41.507Z,11.73
2023-02-27T13:29:20.966Z,15.60
2023-02-27T13:32:04.172Z,12.38
2023-02-27T13:34:42.380Z,13.55
2023-02-27T13:37:14.058Z,11.65
2023-02-27T13:40:03.070Z,14.10
2023-02-27T13:43:02.607Z,12.40
2023-02-27T13:45:59.705Z,13.20
2023-02-27T13:48:55.637Z,17.48
2023-02-27T13:52:02.307Z,15.45
2023-02-27T13:54:44.478Z,16.75
2023-02-27T13:57:38.391Z,14.27
2023-02-27T14:00:32.833Z,15.13
2023-02-27T14:03:14.071Z,13.70
2023-02-27T14:05:49.612Z,14.77
2023-02-27T14:08:29.908Z,14.50
2023-02-27T14:11:10.154Z,14.90
2023-02-27T14:14:05.046Z,15.90
2023-02-27T14:17:12.770Z,13.45
2023-02-27T14:20:06.743Z,14.02
2023-02-27T14:23:20.682Z,14.05
2023-02-27T14:25:59.083Z,14.70
2023-02-27T14:28:38.129Z,14.77
2023-02-27T14:31:23.077Z,17.15
2023-02-27T14:34:11.655Z,17.05
2023-02-27T14:36:52.190Z,16.10
2023-02-27T14:39:37.615Z,18.23
2023-02-27T14:42:48.460Z,18.42
2023-02-27T14:45:28.072Z,15.95
2023-02-27T14:48:02.590Z,16.15
2023-02-27T14:50:41.806Z,20.10
2023-02-27T14:53:27.090Z,20.05
2023-02-27T14:56:05.394Z,15.88
2023-02-27T14:59:02.241Z,19.48
2023-02-27T15:01:43.103Z,17.10
2023-02-27T15:04:29.620Z,19.02
2023-02-27T15:07:07.596Z,15.32
2023-02-27T15:09:51.684Z,17.73
2023-02-27T15:12:25.628Z,22.30
2023-02-27T15:15:12.857Z,17.92
2023-02-27T15:17:51.682Z,19.80
2023-02-27T15:20:39.980Z,21.08
2023-02-27T15:23:35.971Z,18.65
2023-02-27T15:26:14.821Z,16.25
2023-02-27T15:28:53.893Z,15.75
2023-02-27T15:31:39.255Z,14.25
2023-02-27T15:34:20.466Z,14.68
2023-02-27T15:36:53.998Z,16.17
2023-02-27T15:39:33.956Z,15.27
2023-02-27T15:42:12.948Z,16.73
2023-02-27T15:44:50.057Z,18.42
2023-02-27T15:47:28.589Z,16.05
2023-02-27T15:50:12.708Z,15.90
2023-02-27T15:52:55.447Z,14.75
2023-02-27T15:55:39.100Z,16.20
2023-02-27T15:58:53.416Z,13.93
2023-02-27T16:01:31.945Z,15.90
2023-02-27T16:04:12.089Z,18.00
2023-02-27T16:06:54.560Z,20.45
2023-02-27T16:09:37.259Z,19.40
2023-02-27T16:12:34.619Z,19.17
2023-02-27T16:15:31.112Z,17.58
2023-02-27T16:18:10.559Z,15.98
2023-02-27T16:21:02.993Z,16.08
2023-02-27T16:23:39.739Z,17.95
2023-02-27T16:26:39.666Z,21.17
2023-02-27T16:29:26.339Z,19.42
2023-02-27T16:34:56.938Z,117.72
2023-02-27T16:37:35.802Z,118.72
2023-02-27T16:40:24.547Z,96.85
2023-02-27T16:43:12.109Z,72.22
2023-02-27T16:46:07.746Z,74.97
2023-02-27T16:48:42.220Z,67.85
2023-02-27T16:51:21.899Z,62.92
2023-02-27T16:53:59.058Z,48.08
2023-02-27T16:56:38.611Z,34.80
2023-02-27T16:59:25.873Z,36.42
2023-02-27T17:02:11.822Z,30.27
2023-02-27T17:04:49.267Z,26.40
2023-02-27T17:07:24.602Z,28.73
2023-02-27T17:10:04.063Z,28.42
2023-02-27T17:12:45.037Z,31.23
2023-02-27T17:15:19.313Z,33.30
2023-02-27T17:17:54.596Z,32.38
2023-02-27T17:20:30.832Z,37.00
2023-02-27T17:23:08.674Z,36.70
2023-02-27T17:25:43.379Z,35.55
2023-02-27T17:28:24.409Z,34.55
2023-02-27T17:33:40.488Z,41.15
2023-02-27T17:36:19.362Z,34.50
2023-02-27T17:38:57.515Z,38.38
2023-02-27T17:41:37.454Z,31.60
2023-02-27T17:44:15.295Z,31.00
2023-02-27T17:46:53.367Z,28.95
2023-02-27T17:49:34.275Z,36.13
2023-02-27T17:52:09.814Z,29.77
2023-02-27T17:54:56.972Z,32.05
2023-02-27T17:57:28.781Z,32.45
2023-02-27T18:00:04.101Z,38.72
2023-02-27T18:02:48.662Z,38.20
2023-02-27T18:05:39.777Z,33.42
2023-02-27T18:08:16.782Z,33.38
2023-02-27T18:10:54.635Z,32.92
2023-02-27T18:13:36.011Z,34.13
2023-02-27T18:16:15.783Z,31.40
2023-02-27T18:18:53.412Z,33.05
2023-02-27T18:21:35.975Z,30.73
2023-02-27T18:24:29.956Z,31.02
2023-02-27T18:27:03.764Z,34.00
2023-02-27T18:29:39.179Z,32.22
2023-02-27T18:32:25.559Z,31.40
2023-02-27T18:35:05.087Z,29.92
2023-02-27T18:40:32.632Z,36.65
2023-02-27T18:43:14.116Z,32.20
2023-02-27T18:45:53.014Z,33.08
2023-02-27T18:48:41.235Z,30.67
2023-02-27T18:51:26.787Z,27.85
2023-02-27T18:54:13.636Z,28.30
2023-02-27T18:56:54.931Z,28.30
2023-02-27T18:59:31.639Z,29.05
2023-02-27T19:02:02.924Z,28.65
2023-02-27T19:04:44.450Z,29.03
2023-02-27T19:07:17.083Z,29.73
2023-02-27T19:09:56.797Z,29.10
2023-02-27T19:12:30.570Z,26.13
2023-02-27T19:15:10.816Z,27.42
2023-02-27T19:17:50.725Z,27.77
2023-02-27T19:20:20.959Z,39.17
2023-02-27T19:22:51.093Z,32.33
2023-02-27T19:25:32.201Z,36.72
2023-02-27T19:28:10.435Z,45.28
2023-02-27T19:30:45.758Z,36.85
2023-02-27T19:33:17.034Z,28.50
2023-02-27T19:35:47.438Z,26.48
2023-02-27T19:38:28.820Z,23.75
2023-02-27T19:41:16.450Z,23.55
2023-02-27T19:43:57.461Z,22.38
2023-02-27T19:46:33.029Z,27.13
2023-02-27T19:49:12.288Z,25.92
2023-02-27T19:51:44.999Z,27.75
2023-02-27T19:54:19.664Z,32.22
2023-02-27T19:57:01.190Z,33.20
2023-02-27T19:59:43.818Z,32.10
2023-02-27T20:02:23.061Z,34.53
2023-02-27T20:04:56.377Z,40.63
2023-02-27T20:07:35.021Z,50.65
2023-02-27T20:10:09.120Z,55.88
2023-02-27T20:12:47.423Z,52.13
2023-02-27T20:15:24.354Z,55.40
2023-02-27T20:17:56.522Z,48.20
2023-02-27T20:20:32.766Z,38.97
2023-02-27T20:23:06.753Z,33.60
2023-02-27T20:25:39.409Z,36.90
2023-02-27T20:28:14.815Z,41.30
2023-02-27T20:30:45.046Z,41.08
2023-02-27T20:33:23.214Z,51.58
2023-02-27T20:35:57.276Z,51.83
2023-02-27T20:38:35.562Z,47.85
2023-02-27T20:41:29.968Z,43.63
2023-02-27T20:44:19.705Z,47.42
2023-02-27T20:46:56.867Z,55.55
2023-02-27T20:49:32.265Z,55.92
2023-02-27T20:52:13.961Z,53.15
2023-02-27T20:54:45.239Z,60.47
2023-02-27T20:57:24.356Z,52.58
2023-02-27T21:00:05.621Z,49.97
2023-02-27T21:02:41.364Z,50.75
2023-02-27T21:05:20.447Z,48.22
2023-02-27T21:07:56.696Z,48.58
2023-02-27T21:10:35.387Z,46.28
2023-02-27T21:13:11.309Z,49.17
2023-02-27T21:15:59.938Z,43.47
2023-02-27T21:18:39.686Z,46.72
2023-02-27T21:21:28.479Z,43.65
2023-02-27T21:24:09.261Z,44.17
2023-02-27T21:26:47.301Z,48.92
2023-02-27T21:29:27.198Z,44.13
2023-02-27T21:32:26.265Z,49.70
2023-02-27T21:35:08.616Z,51.08
2023-02-27T21:37:49.464Z,50.25
2023-02-27T21:40:25.229Z,51.60
2023-02-27T21:42:59.907Z,49.63
2023-02-27T21:45:38.786Z,51.53
2023-02-27T21:48:21.423Z,52.53
2023-02-27T21:51:14.032Z,46.63
2023-02-27T21:53:57.116Z,42.45
2023-02-27T21:56:39.286Z,38.75
2023-02-27T21:59:12.720Z,43.20
2023-02-27T22:01:53.600Z,39.92
2023-02-27T22:04:31.271Z,45.97
2023-02-27T22:07:12.375Z,52.05
2023-02-27T22:09:54.637Z,56.30
2023-02-27T22:12:28.844Z,53.80
2023-02-27T22:15:08.532Z,52.65
2023-02-27T22:17:51.731Z,47.55
2023-02-27T22:20:34.317Z,47.42
2023-02-27T22:23:17.478Z,47.67
2023-02-27T22:25:52.275Z,46.00
2023-02-27T22:28:28.063Z,44.60
2023-02-27T22:31:15.203Z,44.10
2023-02-27T22:33:50.248Z,39.38
2023-02-27T22:36:37.974Z,39.05
2023-02-27T22:39:14.265Z,38.72
2023-02-27T22:41:55.925Z,41.45
2023-02-27T22:44:33.672Z,35.20
2023-02-27T22:47:14.500Z,36.92
2023-02-27T22:49:57.942Z,33.10
2023-02-27T22:52:51.593Z,33.33
2023-02-27T22:55:27.395Z,33.67
2023-02-27T22:58:02.401Z,32.47
2023-02-27T23:00:48.504Z,35.60
2023-02-27T23:03:40.754Z,37.00
2023-02-27T23:06:19.134Z,36.65
2023-02-27T23:09:13.978Z,36.42
2023-02-27T23:11:46.085Z,28.75
2023-02-27T23:14:33.503Z,29.33
2023-02-27T23:17:07.515Z,31.30
2023-02-27T23:19:46.025Z,32.20
2023-02-27T23:22:23.401Z,28.80
2023-02-27T23:25:08.975Z,30.75
2023-02-27T23:27:47.749Z,26.65
2023-02-27T23:30:38.524Z,28.10
2023-02-27T23:33:16.715Z,31.02
2023-02-27T23:35:55.181Z,25.58
2023-02-27T23:38:35.220Z,27.63
2023-02-27T23:41:25.241Z,28.20
2023-02-27T23:44:03.166Z,28.77
2023-02-27T23:46:41.518Z,30.13
2023-02-27T23:49:18.610Z,29.88
2023-02-27T23:51:55.629Z,31.10
2023-02-27T23:57:20.918Z,30.27
2023-02-27T23:59:55.337Z,34.92
